sensor_id;sensor_type;location;lat;lon;timestamp;P1;durP1;ratioP1;P2;durP2;ratioP2
17858;SDS011;35426;30.698;104.050;2022-10-17T00:02:08;102.57;;;43.87;;
17858;SDS011;35426;30.698;104.050;2022-10-17T00:04:43;121.57;;;45.03;;
17858;SDS011;35426;30.698;104.050;2022-10-17T00:07:16;100.80;;;43.53;;
17858;SDS011;35426;30.698;104.050;2022-10-17T00:09:50;99.63;;;41.83;;
17858;SDS011;35426;30.698;104.050;2022-10-17T00:12:24;98.13;;;41.37;;
17858;SDS011;35426;30.698;104.050;2022-10-17T00:15:00;104.53;;;41.03;;
17858;SDS011;35426;30.698;104.050;2022-10-17T00:17:35;90.50;;;40.57;;
17858;SDS011;35426;30.698;104.050;2022-10-17T00:20:10;95.23;;;40.60;;
17858;SDS011;35426;30.698;104.050;2022-10-17T00:22:44;87.00;;;39.37;;
17858;SDS011;35426;30.698;104.050;2022-10-17T00:25:19;103.30;;;43.73;;
17858;SDS011;35426;30.698;104.050;2022-10-17T00:27:52;100.00;;;43.17;;
17858;SDS011;35426;30.698;104.050;2022-10-17T00:30:29;100.20;;;42.07;;
17858;SDS011;35426;30.698;104.050;2022-10-17T00:33:04;108.03;;;44.70;;
17858;SDS011;35426;30.698;104.050;2022-10-17T00:35:39;107.63;;;44.07;;
17858;SDS011;35426;30.698;104.050;2022-10-17T00:38:14;104.17;;;44.50;;
17858;SDS011;35426;30.698;104.050;2022-10-17T00:40:49;109.67;;;42.50;;
17858;SDS011;35426;30.698;104.050;2022-10-17T00:43:27;104.83;;;42.90;;
17858;SDS011;35426;30.698;104.050;2022-10-17T00:46:05;100.00;;;41.33;;
17858;SDS011;35426;30.698;104.050;2022-10-17T00:48:40;105.77;;;43.63;;
17858;SDS011;35426;30.698;104.050;2022-10-17T00:51:15;109.50;;;43.67;;
17858;SDS011;35426;30.698;104.050;2022-10-17T00:53:52;109.80;;;45.83;;
17858;SDS011;35426;30.698;104.050;2022-10-17T00:56:30;103.93;;;43.37;;
17858;SDS011;35426;30.698;104.050;2022-10-17T00:59:06;111.70;;;46.40;;
17858;SDS011;35426;30.698;104.050;2022-10-17T01:01:53;100.10;;;44.07;;
17858;SDS011;35426;30.698;104.050;2022-10-17T01:04:32;95.80;;;46.53;;
17858;SDS011;35426;30.698;104.050;2022-10-17T01:07:10;97.63;;;45.23;;
17858;SDS011;35426;30.698;104.050;2022-10-17T01:09:46;107.27;;;46.00;;
17858;SDS011;35426;30.698;104.050;2022-10-17T01:12:22;104.87;;;47.43;;
17858;SDS011;35426;30.698;104.050;2022-10-17T01:15:03;99.00;;;44.27;;
17858;SDS011;35426;30.698;104.050;2022-10-17T01:17:48;94.77;;;39.93;;
17858;SDS011;35426;30.698;104.050;2022-10-17T01:20:51;102.60;;;43.50;;
17858;SDS011;35426;30.698;104.050;2022-10-17T01:30:31;113.13;;;48.37;;
17858;SDS011;35426;30.698;104.050;2022-10-17T01:33:30;103.90;;;45.67;;
17858;SDS011;35426;30.698;104.050;2022-10-17T01:36:14;109.20;;;47.13;;
17858;SDS011;35426;30.698;104.050;2022-10-17T01:38:57;103.37;;;45.80;;
17858;SDS011;35426;30.698;104.050;2022-10-17T01:41:39;104.80;;;48.00;;
17858;SDS011;35426;30.698;104.050;2022-10-17T01:44:51;99.27;;;43.20;;
17858;SDS011;35426;30.698;104.050;2022-10-17T01:47:28;106.70;;;46.90;;
17858;SDS011;35426;30.698;104.050;2022-10-17T01:50:08;96.63;;;43.63;;
17858;SDS011;35426;30.698;104.050;2022-10-17T01:52:49;106.47;;;43.67;;
17858;SDS011;35426;30.698;104.050;2022-10-17T01:55:27;101.03;;;42.57;;
17858;SDS011;35426;30.698;104.050;2022-10-17T01:58:08;100.93;;;44.87;;
17858;SDS011;35426;30.698;104.050;2022-10-17T02:00:48;106.30;;;42.03;;
17858;SDS011;35426;30.698;104.050;2022-10-17T02:03:31;100.30;;;43.73;;
17858;SDS011;35426;30.698;104.050;2022-10-17T02:06:09;108.90;;;43.83;;
17858;SDS011;35426;30.698;104.050;2022-10-17T02:08:45;103.17;;;43.83;;
17858;SDS011;35426;30.698;104.050;2022-10-17T02:11:21;101.53;;;43.70;;
17858;SDS011;35426;30.698;104.050;2022-10-17T02:14:10;104.73;;;42.87;;
17858;SDS011;35426;30.698;104.050;2022-10-17T02:16:57;107.20;;;43.03;;
17858;SDS011;35426;30.698;104.050;2022-10-17T02:19:46;102.40;;;40.53;;
17858;SDS011;35426;30.698;104.050;2022-10-17T02:22:33;94.93;;;40.77;;
17858;SDS011;35426;30.698;104.050;2022-10-17T02:25:16;85.70;;;38.87;;
17858;SDS011;35426;30.698;104.050;2022-10-17T02:28:03;73.27;;;33.73;;
17858;SDS011;35426;30.698;104.050;2022-10-17T02:30:49;58.97;;;27.43;;
17858;SDS011;35426;30.698;104.050;2022-10-17T02:33:45;66.17;;;27.80;;
17858;SDS011;35426;30.698;104.050;2022-10-17T02:36:24;63.87;;;27.40;;
17858;SDS011;35426;30.698;104.050;2022-10-17T02:39:07;66.17;;;29.53;;
17858;SDS011;35426;30.698;104.050;2022-10-17T02:41:44;62.20;;;28.07;;
17858;SDS011;35426;30.698;104.050;2022-10-17T02:44:20;68.00;;;29.37;;
17858;SDS011;35426;30.698;104.050;2022-10-17T02:46:58;62.80;;;28.33;;
17858;SDS011;35426;30.698;104.050;2022-10-17T02:49:38;67.40;;;28.37;;
17858;SDS011;35426;30.698;104.050;2022-10-17T02:52:17;73.43;;;29.10;;
17858;SDS011;35426;30.698;104.050;2022-10-17T02:55:02;63.27;;;27.67;;
17858;SDS011;35426;30.698;104.050;2022-10-17T02:57:43;63.07;;;26.43;;
17858;SDS011;35426;30.698;104.050;2022-10-17T03:00:22;57.17;;;25.80;;
17858;SDS011;35426;30.698;104.050;2022-10-17T03:02:59;69.17;;;25.83;;
17858;SDS011;35426;30.698;104.050;2022-10-17T03:05:52;64.13;;;25.53;;
17858;SDS011;35426;30.698;104.050;2022-10-17T03:08:29;54.70;;;24.00;;
17858;SDS011;35426;30.698;104.050;2022-10-17T03:11:07;55.27;;;23.10;;
17858;SDS011;35426;30.698;104.050;2022-10-17T03:13:42;55.17;;;22.63;;
17858;SDS011;35426;30.698;104.050;2022-10-17T03:16:18;47.70;;;21.50;;
17858;SDS011;35426;30.698;104.050;2022-10-17T03:18:55;51.43;;;21.53;;
17858;SDS011;35426;30.698;104.050;2022-10-17T03:21:32;52.63;;;21.17;;
17858;SDS011;35426;30.698;104.050;2022-10-17T03:24:07;52.87;;;19.83;;
17858;SDS011;35426;30.698;104.050;2022-10-17T03:26:46;45.43;;;19.73;;
17858;SDS011;35426;30.698;104.050;2022-10-17T03:29:21;46.53;;;19.83;;
17858;SDS011;35426;30.698;104.050;2022-10-17T03:31:57;50.20;;;18.30;;
17858;SDS011;35426;30.698;104.050;2022-10-17T03:34:32;43.73;;;18.93;;
17858;SDS011;35426;30.698;104.050;2022-10-17T03:37:10;47.87;;;19.53;;
17858;SDS011;35426;30.698;104.050;2022-10-17T03:39:46;53.43;;;20.53;;
17858;SDS011;35426;30.698;104.050;2022-10-17T03:42:23;53.07;;;20.90;;
17858;SDS011;35426;30.698;104.050;2022-10-17T03:44:58;52.53;;;19.33;;
17858;SDS011;35426;30.698;104.050;2022-10-17T03:47:33;64.90;;;22.57;;
17858;SDS011;35426;30.698;104.050;2022-10-17T03:50:09;54.50;;;21.30;;
17858;SDS011;35426;30.698;104.050;2022-10-17T03:52:45;48.20;;;20.50;;
17858;SDS011;35426;30.698;104.050;2022-10-17T03:55:20;58.07;;;21.93;;
17858;SDS011;35426;30.698;104.050;2022-10-17T03:57:59;59.67;;;23.90;;
17858;SDS011;35426;30.698;104.050;2022-10-17T04:00:41;59.50;;;23.37;;
17858;SDS011;35426;30.698;104.050;2022-10-17T04:03:17;55.87;;;22.97;;
17858;SDS011;35426;30.698;104.050;2022-10-17T04:05:52;63.93;;;27.37;;
17858;SDS011;35426;30.698;104.050;2022-10-17T04:08:36;54.63;;;20.63;;
17858;SDS011;35426;30.698;104.050;2022-10-17T04:11:22;55.77;;;21.90;;
17858;SDS011;35426;30.698;104.050;2022-10-17T04:14:05;56.53;;;22.77;;
17858;SDS011;35426;30.698;104.050;2022-10-17T04:16:44;50.17;;;21.13;;
17858;SDS011;35426;30.698;104.050;2022-10-17T04:19:23;63.57;;;24.13;;
17858;SDS011;35426;30.698;104.050;2022-10-17T04:22:03;55.23;;;22.53;;
17858;SDS011;35426;30.698;104.050;2022-10-17T04:24:40;52.50;;;22.43;;
17858;SDS011;35426;30.698;104.050;2022-10-17T04:27:31;56.83;;;21.33;;
17858;SDS011;35426;30.698;104.050;2022-10-17T04:30:10;51.10;;;21.13;;
17858;SDS011;35426;30.698;104.050;2022-10-17T04:32:46;54.53;;;21.60;;
17858;SDS011;35426;30.698;104.050;2022-10-17T04:35:24;50.30;;;20.90;;
17858;SDS011;35426;30.698;104.050;2022-10-17T04:38:04;54.53;;;22.80;;
17858;SDS011;35426;30.698;104.050;2022-10-17T04:40:40;54.83;;;22.17;;
17858;SDS011;35426;30.698;104.050;2022-10-17T04:43:20;52.57;;;21.70;;
17858;SDS011;35426;30.698;104.050;2022-10-17T04:46:05;58.80;;;21.53;;
17858;SDS011;35426;30.698;104.050;2022-10-17T04:48:43;50.67;;;22.13;;
17858;SDS011;35426;30.698;104.050;2022-10-17T04:51:22;56.27;;;20.70;;
17858;SDS011;35426;30.698;104.050;2022-10-17T04:54:18;45.90;;;20.70;;
17858;SDS011;35426;30.698;104.050;2022-10-17T04:57:08;59.57;;;20.90;;
17858;SDS011;35426;30.698;104.050;2022-10-17T05:00:04;58.77;;;20.50;;
17858;SDS011;35426;30.698;104.050;2022-10-17T05:02:58;49.77;;;20.70;;
17858;SDS011;35426;30.698;104.050;2022-10-17T05:05:38;56.57;;;22.00;;
17858;SDS011;35426;30.698;104.050;2022-10-17T05:08:14;52.37;;;20.10;;
17858;SDS011;35426;30.698;104.050;2022-10-17T05:10:57;48.87;;;21.20;;
17858;SDS011;35426;30.698;104.050;2022-10-17T05:13:36;54.57;;;20.80;;
17858;SDS011;35426;30.698;104.050;2022-10-17T05:16:12;48.13;;;18.47;;
17858;SDS011;35426;30.698;104.050;2022-10-17T05:18:55;45.77;;;18.33;;
17858;SDS011;35426;30.698;104.050;2022-10-17T05:21:37;41.90;;;17.23;;
17858;SDS011;35426;30.698;104.050;2022-10-17T05:24:14;43.73;;;16.63;;
17858;SDS011;35426;30.698;104.050;2022-10-17T05:26:50;37.43;;;15.33;;
17858;SDS011;35426;30.698;104.050;2022-10-17T05:29:28;44.20;;;17.30;;
17858;SDS011;35426;30.698;104.050;2022-10-17T05:32:13;49.90;;;20.27;;
17858;SDS011;35426;30.698;104.050;2022-10-17T05:34:58;45.67;;;18.80;;
17858;SDS011;35426;30.698;104.050;2022-10-17T05:37:33;47.00;;;18.63;;
17858;SDS011;35426;30.698;104.050;2022-10-17T05:40:11;41.93;;;17.83;;
17858;SDS011;35426;30.698;104.050;2022-10-17T05:42:54;45.50;;;18.93;;
17858;SDS011;35426;30.698;104.050;2022-10-17T05:45:36;46.53;;;18.27;;
17858;SDS011;35426;30.698;104.050;2022-10-17T05:48:21;45.20;;;17.97;;
17858;SDS011;35426;30.698;104.050;2022-10-17T05:51:00;53.93;;;18.20;;
17858;SDS011;35426;30.698;104.050;2022-10-17T05:53:38;41.83;;;17.73;;
17858;SDS011;35426;30.698;104.050;2022-10-17T05:56:21;59.70;;;20.63;;
17858;SDS011;35426;30.698;104.050;2022-10-17T05:58:56;55.23;;;22.60;;
17858;SDS011;35426;30.698;104.050;2022-10-17T06:01:55;54.87;;;22.23;;
17858;SDS011;35426;30.698;104.050;2022-10-17T06:04:31;55.13;;;21.83;;
17858;SDS011;35426;30.698;104.050;2022-10-17T06:07:13;48.67;;;19.87;;
17858;SDS011;35426;30.698;104.050;2022-10-17T06:09:50;50.03;;;18.43;;
17858;SDS011;35426;30.698;104.050;2022-10-17T06:12:28;44.57;;;18.03;;
17858;SDS011;35426;30.698;104.050;2022-10-17T06:15:04;49.47;;;18.90;;
17858;SDS011;35426;30.698;104.050;2022-10-17T06:17:45;46.70;;;18.83;;
17858;SDS011;35426;30.698;104.050;2022-10-17T06:20:23;49.33;;;20.90;;
17858;SDS011;35426;30.698;104.050;2022-10-17T06:23:08;56.17;;;21.53;;
17858;SDS011;35426;30.698;104.050;2022-10-17T06:26:21;58.63;;;22.63;;
17858;SDS011;35426;30.698;104.050;2022-10-17T06:28:58;61.40;;;22.43;;
17858;SDS011;35426;30.698;104.050;2022-10-17T06:31:41;55.53;;;22.03;;
17858;SDS011;35426;30.698;104.050;2022-10-17T06:34:17;54.00;;;19.87;;
17858;SDS011;35426;30.698;104.050;2022-10-17T06:36:52;61.57;;;21.43;;
17858;SDS011;35426;30.698;104.050;2022-10-17T06:39:34;57.20;;;22.20;;
17858;SDS011;35426;30.698;104.050;2022-10-17T06:42:16;55.87;;;21.87;;
17858;SDS011;35426;30.698;104.050;2022-10-17T06:45:20;48.47;;;19.57;;
17858;SDS011;35426;30.698;104.050;2022-10-17T06:48:15;49.43;;;20.80;;
17858;SDS011;35426;30.698;104.050;2022-10-17T06:51:14;54.73;;;20.63;;
17858;SDS011;35426;30.698;104.050;2022-10-17T06:53:56;44.57;;;18.80;;
17858;SDS011;35426;30.698;104.050;2022-10-17T06:56:51;44.27;;;18.60;;
17858;SDS011;35426;30.698;104.050;2022-10-17T06:59:49;48.87;;;19.27;;
17858;SDS011;35426;30.698;104.050;2022-10-17T07:02:36;42.50;;;19.30;;
17858;SDS011;35426;30.698;104.050;2022-10-17T07:05:15;60.83;;;24.27;;
17858;SDS011;35426;30.698;104.050;2022-10-17T07:07:59;55.83;;;22.83;;
17858;SDS011;35426;30.698;104.050;2022-10-17T07:10:38;52.47;;;21.60;;
17858;SDS011;35426;30.698;104.050;2022-10-17T07:13:17;57.70;;;21.13;;
17858;SDS011;35426;30.698;104.050;2022-10-17T07:15:53;47.90;;;20.80;;
17858;SDS011;35426;30.698;104.050;2022-10-17T07:18:42;45.70;;;19.73;;
17858;SDS011;35426;30.698;104.050;2022-10-17T07:21:25;52.70;;;21.37;;
17858;SDS011;35426;30.698;104.050;2022-10-17T07:24:10;54.73;;;21.77;;
17858;SDS011;35426;30.698;104.050;2022-10-17T07:27:04;51.03;;;20.60;;
17858;SDS011;35426;30.698;104.050;2022-10-17T07:29:43;56.97;;;21.33;;
17858;SDS011;35426;30.698;104.050;2022-10-17T07:32:42;44.17;;;18.97;;
17858;SDS011;35426;30.698;104.050;2022-10-17T07:35:18;56.57;;;20.73;;
17858;SDS011;35426;30.698;104.050;2022-10-17T07:38:14;45.90;;;19.63;;
17858;SDS011;35426;30.698;104.050;2022-10-17T07:40:53;56.80;;;21.80;;
17858;SDS011;35426;30.698;104.050;2022-10-17T07:43:28;55.63;;;25.57;;
17858;SDS011;35426;30.698;104.050;2022-10-17T07:46:10;59.73;;;24.07;;
17858;SDS011;35426;30.698;104.050;2022-10-17T07:48:45;58.40;;;23.83;;
17858;SDS011;35426;30.698;104.050;2022-10-17T07:51:21;57.30;;;22.80;;
17858;SDS011;35426;30.698;104.050;2022-10-17T07:53:57;59.70;;;23.30;;
17858;SDS011;35426;30.698;104.050;2022-10-17T07:56:35;63.80;;;23.37;;
17858;SDS011;35426;30.698;104.050;2022-10-17T07:59:12;56.63;;;23.77;;
17858;SDS011;35426;30.698;104.050;2022-10-17T08:01:49;59.27;;;22.93;;
17858;SDS011;35426;30.698;104.050;2022-10-17T08:04:32;51.53;;;23.10;;
17858;SDS011;35426;30.698;104.050;2022-10-17T08:07:08;58.13;;;24.10;;
17858;SDS011;35426;30.698;104.050;2022-10-17T08:09:53;52.73;;;23.33;;
17858;SDS011;35426;30.698;104.050;2022-10-17T08:12:30;55.67;;;22.37;;
17858;SDS011;35426;30.698;104.050;2022-10-17T08:15:07;46.30;;;22.60;;
17858;SDS011;35426;30.698;104.050;2022-10-17T08:17:46;60.80;;;23.27;;
17858;SDS011;35426;30.698;104.050;2022-10-17T08:20:24;56.43;;;23.70;;
17858;SDS011;35426;30.698;104.050;2022-10-17T08:23:04;50.00;;;23.17;;
17858;SDS011;35426;30.698;104.050;2022-10-17T08:25:42;57.90;;;23.40;;
17858;SDS011;35426;30.698;104.050;2022-10-17T08:28:19;53.07;;;24.70;;
17858;SDS011;35426;30.698;104.050;2022-10-17T08:31:01;60.13;;;25.77;;
17858;SDS011;35426;30.698;104.050;2022-10-17T08:33:39;62.97;;;26.60;;
17858;SDS011;35426;30.698;104.050;2022-10-17T08:36:17;68.87;;;28.50;;
17858;SDS011;35426;30.698;104.050;2022-10-17T08:38:53;61.77;;;27.07;;
17858;SDS011;35426;30.698;104.050;2022-10-17T08:41:37;73.43;;;28.50;;
17858;SDS011;35426;30.698;104.050;2022-10-17T08:44:24;72.83;;;28.37;;
17858;SDS011;35426;30.698;104.050;2022-10-17T08:47:12;62.20;;;27.83;;
17858;SDS011;35426;30.698;104.050;2022-10-17T08:49:55;63.33;;;25.07;;
17858;SDS011;35426;30.698;104.050;2022-10-17T08:52:44;64.97;;;25.37;;
17858;SDS011;35426;30.698;104.050;2022-10-17T08:55:26;68.40;;;28.00;;
17858;SDS011;35426;30.698;104.050;2022-10-17T08:58:14;60.03;;;26.00;;
17858;SDS011;35426;30.698;104.050;2022-10-17T09:01:01;59.23;;;25.80;;
17858;SDS011;35426;30.698;104.050;2022-10-17T09:03:49;72.83;;;27.90;;
17858;SDS011;35426;30.698;104.050;2022-10-17T09:06:41;74.93;;;29.57;;
17858;SDS011;35426;30.698;104.050;2022-10-17T09:09:23;64.77;;;27.60;;
17858;SDS011;35426;30.698;104.050;2022-10-17T09:12:14;70.63;;;26.87;;
17858;SDS011;35426;30.698;104.050;2022-10-17T09:15:15;70.47;;;28.83;;
17858;SDS011;35426;30.698;104.050;2022-10-17T09:18:08;68.43;;;27.83;;
17858;SDS011;35426;30.698;104.050;2022-10-17T09:20:50;69.60;;;29.57;;
17858;SDS011;35426;30.698;104.050;2022-10-17T09:23:30;77.50;;;32.40;;
17858;SDS011;35426;30.698;104.050;2022-10-17T09:26:14;71.43;;;29.70;;
17858;SDS011;35426;30.698;104.050;2022-10-17T09:28:54;68.47;;;28.00;;
17858;SDS011;35426;30.698;104.050;2022-10-17T09:31:32;60.57;;;26.10;;
17858;SDS011;35426;30.698;104.050;2022-10-17T09:34:13;62.60;;;27.53;;
17858;SDS011;35426;30.698;104.050;2022-10-17T09:36:54;63.33;;;26.00;;
17858;SDS011;35426;30.698;104.050;2022-10-17T09:39:38;58.13;;;23.17;;
17858;SDS011;35426;30.698;104.050;2022-10-17T09:42:18;56.53;;;23.90;;
17858;SDS011;35426;30.698;104.050;2022-10-17T09:45:02;58.10;;;23.73;;
17858;SDS011;35426;30.698;104.050;2022-10-17T09:47:48;61.43;;;24.10;;
17858;SDS011;35426;30.698;104.050;2022-10-17T09:50:29;61.23;;;24.80;;
17858;SDS011;35426;30.698;104.050;2022-10-17T09:53:09;56.73;;;23.67;;
17858;SDS011;35426;30.698;104.050;2022-10-17T09:55:50;60.40;;;20.40;;
17858;SDS011;35426;30.698;104.050;2022-10-17T09:58:39;51.20;;;21.73;;
17858;SDS011;35426;30.698;104.050;2022-10-17T10:01:16;60.60;;;23.33;;
17858;SDS011;35426;30.698;104.050;2022-10-17T10:09:37;53.80;;;22.97;;
17858;SDS011;35426;30.698;104.050;2022-10-17T10:12:18;61.93;;;21.97;;
17858;SDS011;35426;30.698;104.050;2022-10-17T10:14:57;55.37;;;23.20;;
17858;SDS011;35426;30.698;104.050;2022-10-17T10:17:36;62.30;;;22.50;;
17858;SDS011;35426;30.698;104.050;2022-10-17T10:20:27;62.83;;;21.67;;
17858;SDS011;35426;30.698;104.050;2022-10-17T10:23:05;55.83;;;22.47;;
17858;SDS011;35426;30.698;104.050;2022-10-17T10:25:51;60.27;;;23.80;;
17858;SDS011;35426;30.698;104.050;2022-10-17T10:28:31;52.60;;;21.87;;
17858;SDS011;35426;30.698;104.050;2022-10-17T10:31:07;58.97;;;22.97;;
17858;SDS011;35426;30.698;104.050;2022-10-17T10:33:45;58.97;;;21.20;;
17858;SDS011;35426;30.698;104.050;2022-10-17T10:39:25;52.27;;;21.93;;
17858;SDS011;35426;30.698;104.050;2022-10-17T10:42:20;52.73;;;22.47;;
17858;SDS011;35426;30.698;104.050;2022-10-17T10:45:03;63.00;;;23.33;;
17858;SDS011;35426;30.698;104.050;2022-10-17T10:48:17;60.73;;;21.33;;
17858;SDS011;35426;30.698;104.050;2022-10-17T10:50:56;52.57;;;22.07;;
17858;SDS011;35426;30.698;104.050;2022-10-17T10:53:40;54.50;;;22.37;;
17858;SDS011;35426;30.698;104.050;2022-10-17T10:56:19;56.10;;;22.40;;
17858;SDS011;35426;30.698;104.050;2022-10-17T10:59:02;49.87;;;22.07;;
17858;SDS011;35426;30.698;104.050;2022-10-17T11:01:50;52.90;;;23.23;;
17858;SDS011;35426;30.698;104.050;2022-10-17T11:04:33;60.67;;;23.37;;
17858;SDS011;35426;30.698;104.050;2022-10-17T11:07:13;62.33;;;22.83;;
17858;SDS011;35426;30.698;104.050;2022-10-17T11:09:55;57.83;;;24.20;;
17858;SDS011;35426;30.698;104.050;2022-10-17T11:12:42;64.90;;;23.90;;
17858;SDS011;35426;30.698;104.050;2022-10-17T11:15:22;61.57;;;23.07;;
17858;SDS011;35426;30.698;104.050;2022-10-17T11:18:05;64.17;;;24.40;;
17858;SDS011;35426;30.698;104.050;2022-10-17T11:20:49;65.63;;;23.40;;
17858;SDS011;35426;30.698;104.050;2022-10-17T11:23:29;65.30;;;25.20;;
17858;SDS011;35426;30.698;104.050;2022-10-17T11:26:13;61.03;;;23.53;;
17858;SDS011;35426;30.698;104.050;2022-10-17T11:28:55;62.00;;;24.50;;
17858;SDS011;35426;30.698;104.050;2022-10-17T11:31:35;78.17;;;26.57;;
17858;SDS011;35426;30.698;104.050;2022-10-17T11:34:18;68.93;;;25.57;;
17858;SDS011;35426;30.698;104.050;2022-10-17T11:36:58;67.47;;;27.13;;
17858;SDS011;35426;30.698;104.050;2022-10-17T11:39:39;64.87;;;25.90;;
17858;SDS011;35426;30.698;104.050;2022-10-17T11:42:18;87.70;;;40.07;;
17858;SDS011;35426;30.698;104.050;2022-10-17T11:44:59;73.20;;;28.87;;
17858;SDS011;35426;30.698;104.050;2022-10-17T11:47:43;62.73;;;26.93;;
17858;SDS011;35426;30.698;104.050;2022-10-17T11:50:25;67.50;;;26.97;;
17858;SDS011;35426;30.698;104.050;2022-10-17T11:53:30;61.70;;;25.47;;
17858;SDS011;35426;30.698;104.050;2022-10-17T11:56:17;73.93;;;27.80;;
17858;SDS011;35426;30.698;104.050;2022-10-17T11:59:03;67.20;;;26.33;;
17858;SDS011;35426;30.698;104.050;2022-10-17T12:02:03;69.30;;;27.27;;
17858;SDS011;35426;30.698;104.050;2022-10-17T12:04:50;75.73;;;27.37;;
17858;SDS011;35426;30.698;104.050;2022-10-17T12:07:41;60.40;;;27.27;;
17858;SDS011;35426;30.698;104.050;2022-10-17T12:10:27;79.67;;;26.80;;
17858;SDS011;35426;30.698;104.050;2022-10-17T12:19:30;67.20;;;26.73;;
17858;SDS011;35426;30.698;104.050;2022-10-17T12:22:17;71.27;;;26.97;;
17858;SDS011;35426;30.698;104.050;2022-10-17T12:25:03;60.00;;;25.43;;
17858;SDS011;35426;30.698;104.050;2022-10-17T12:28:00;69.93;;;26.97;;
17858;SDS011;35426;30.698;104.050;2022-10-17T12:30:52;72.83;;;27.87;;
17858;SDS011;35426;30.698;104.050;2022-10-17T12:33:37;73.77;;;28.37;;
17858;SDS011;35426;30.698;104.050;2022-10-17T12:42:33;68.60;;;26.60;;
17858;SDS011;35426;30.698;104.050;2022-10-17T12:45:46;75.47;;;29.20;;
17858;SDS011;35426;30.698;104.050;2022-10-17T12:54:44;71.93;;;28.43;;
17858;SDS011;35426;30.698;104.050;2022-10-17T12:58:00;69.17;;;26.10;;
17858;SDS011;35426;30.698;104.050;2022-10-17T13:00:47;59.03;;;23.17;;
17858;SDS011;35426;30.698;104.050;2022-10-17T13:03:46;61.57;;;24.70;;
17858;SDS011;35426;30.698;104.050;2022-10-17T13:06:28;66.30;;;25.30;;
17858;SDS011;35426;30.698;104.050;2022-10-17T13:09:19;64.73;;;25.13;;
17858;SDS011;35426;30.698;104.050;2022-10-17T13:12:14;51.10;;;23.33;;
17858;SDS011;35426;30.698;104.050;2022-10-17T13:15:10;59.63;;;24.87;;
17858;SDS011;35426;30.698;104.050;2022-10-17T13:17:55;60.07;;;25.30;;
17858;SDS011;35426;30.698;104.050;2022-10-17T13:20:37;64.77;;;24.63;;
17858;SDS011;35426;30.698;104.050;2022-10-17T13:23:23;56.33;;;24.87;;
17858;SDS011;35426;30.698;104.050;2022-10-17T13:26:11;62.10;;;24.77;;
17858;SDS011;35426;30.698;104.050;2022-10-17T13:29:03;69.00;;;25.43;;
17858;SDS011;35426;30.698;104.050;2022-10-17T13:31:53;64.77;;;25.57;;
17858;SDS011;35426;30.698;104.050;2022-10-17T13:34:39;58.23;;;25.43;;
17858;SDS011;35426;30.698;104.050;2022-10-17T13:37:19;51.00;;;22.73;;
17858;SDS011;35426;30.698;104.050;2022-10-17T13:39:55;52.57;;;22.30;;
17858;SDS011;35426;30.698;104.050;2022-10-17T13:42:53;51.47;;;21.53;;
17858;SDS011;35426;30.698;104.050;2022-10-17T13:45:36;63.17;;;22.53;;
17858;SDS011;35426;30.698;104.050;2022-10-17T13:48:25;56.23;;;20.87;;
17858;SDS011;35426;30.698;104.050;2022-10-17T13:51:06;50.60;;;21.33;;
17858;SDS011;35426;30.698;104.050;2022-10-17T13:53:50;51.80;;;20.77;;
17858;SDS011;35426;30.698;104.050;2022-10-17T13:56:27;51.67;;;19.20;;
17858;SDS011;35426;30.698;104.050;2022-10-17T13:59:15;46.60;;;18.70;;
17858;SDS011;35426;30.698;104.050;2022-10-17T14:01:58;47.40;;;20.57;;
17858;SDS011;35426;30.698;104.050;2022-10-17T14:04:45;52.27;;;20.53;;
17858;SDS011;35426;30.698;104.050;2022-10-17T14:07:49;55.33;;;21.37;;
17858;SDS011;35426;30.698;104.050;2022-10-17T14:10:50;58.93;;;25.53;;
17858;SDS011;35426;30.698;104.050;2022-10-17T14:13:29;72.37;;;26.10;;
17858;SDS011;35426;30.698;104.050;2022-10-17T14:16:09;76.50;;;29.23;;
17858;SDS011;35426;30.698;104.050;2022-10-17T14:18:46;90.77;;;33.67;;
17858;SDS011;35426;30.698;104.050;2022-10-17T14:21:36;89.83;;;33.87;;
17858;SDS011;35426;30.698;104.050;2022-10-17T14:24:28;95.40;;;35.03;;
17858;SDS011;35426;30.698;104.050;2022-10-17T14:27:23;109.03;;;38.17;;
17858;SDS011;35426;30.698;104.050;2022-10-17T14:30:30;108.63;;;38.30;;
17858;SDS011;35426;30.698;104.050;2022-10-17T14:33:26;90.00;;;36.43;;
17858;SDS011;35426;30.698;104.050;2022-10-17T14:39:17;108.37;;;39.03;;
17858;SDS011;35426;30.698;104.050;2022-10-17T14:41:56;118.73;;;37.57;;
17858;SDS011;35426;30.698;104.050;2022-10-17T14:44:37;103.50;;;38.37;;
17858;SDS011;35426;30.698;104.050;2022-10-17T14:47:15;103.27;;;39.20;;
17858;SDS011;35426;30.698;104.050;2022-10-17T14:50:20;118.63;;;40.47;;
17858;SDS011;35426;30.698;104.050;2022-10-17T14:53:01;122.87;;;43.10;;
17858;SDS011;35426;30.698;104.050;2022-10-17T14:55:53;116.13;;;41.40;;
17858;SDS011;35426;30.698;104.050;2022-10-17T14:58:34;118.97;;;42.27;;
17858;SDS011;35426;30.698;104.050;2022-10-17T15:01:13;113.67;;;41.00;;
17858;SDS011;35426;30.698;104.050;2022-10-17T15:03:50;107.80;;;40.07;;
17858;SDS011;35426;30.698;104.050;2022-10-17T15:06:38;109.23;;;39.73;;
17858;SDS011;35426;30.698;104.050;2022-10-17T15:09:27;106.30;;;38.27;;
17858;SDS011;35426;30.698;104.050;2022-10-17T15:12:13;95.90;;;40.50;;
17858;SDS011;35426;30.698;104.050;2022-10-17T15:14:53;97.40;;;36.40;;
17858;SDS011;35426;30.698;104.050;2022-10-17T15:17:31;95.00;;;38.40;;
17858;SDS011;35426;30.698;104.050;2022-10-17T15:20:15;91.63;;;40.63;;
17858;SDS011;35426;30.698;104.050;2022-10-17T15:22:56;114.93;;;41.97;;
17858;SDS011;35426;30.698;104.050;2022-10-17T15:25:40;101.03;;;41.83;;
17858;SDS011;35426;30.698;104.050;2022-10-17T15:28:21;109.77;;;43.40;;
17858;SDS011;35426;30.698;104.050;2022-10-17T15:30:57;108.87;;;42.70;;
17858;SDS011;35426;30.698;104.050;2022-10-17T15:33:33;105.10;;;45.23;;
17858;SDS011;35426;30.698;104.050;2022-10-17T15:36:21;115.17;;;44.63;;
17858;SDS011;35426;30.698;104.050;2022-10-17T15:39:05;101.40;;;43.33;;
17858;SDS011;35426;30.698;104.050;2022-10-17T15:41:49;110.93;;;43.93;;
17858;SDS011;35426;30.698;104.050;2022-10-17T15:44:26;115.97;;;46.83;;
17858;SDS011;35426;30.698;104.050;2022-10-17T15:47:08;105.13;;;43.93;;
17858;SDS011;35426;30.698;104.050;2022-10-17T15:49:57;120.23;;;45.50;;
17858;SDS011;35426;30.698;104.050;2022-10-17T15:52:38;108.83;;;46.23;;
17858;SDS011;35426;30.698;104.050;2022-10-17T15:55:16;114.60;;;47.07;;
17858;SDS011;35426;30.698;104.050;2022-10-17T15:57:56;113.97;;;51.27;;
17858;SDS011;35426;30.698;104.050;2022-10-17T16:00:40;121.83;;;48.27;;